FW8630 Weather Reports


Display with metric or nautical units.
time (UTC)temp
F
wind
direction
speed
MPH
gust
MPH
rain 1hr
in
rain 24hr
in
rain mn
in
humidity
%
barometer
mb
20220706001516 62 258 6.0 14.0 0.00 0.00 0.00 56 1016.7
20220706000014 62 292 2.0 10.0 0.00 0.00 0.00 55 1016.7
20220705234512 62 245 4.0 13.0 0.00 0.00 0.00 53 1016.5
20220705233011 63 237 3.0 11.0 0.00 0.00 0.00 55 1016.6
20220705231509 63 279 3.0 14.0 0.00 0.00 0.00 55 1016.7
20220705230006 63 218 2.0 15.0 0.00 0.00 0.00 54 1016.7
20220705224509 64 246 5.0 15.0 0.00 0.00 0.00 54 1016.6
20220705223004 63 241 7.0 14.0 0.00 0.00 0.00 52 1016.7
20220705221600 64 269 5.0 16.0 0.00 0.00 0.00 54 1016.7
20220705220057 63 259 5.0 14.0 0.00 0.00 0.00 56 1016.6
20220705214557 60 232 1.0 3.0 0.00 0.00 0.00 61 1016.6
20220705213055 60 239 0.0 2.0 0.00 0.00 0.00 60 1016.5
20220705211600 61 288 0.0 1.0 0.00 0.00 0.00 58 1016.5
20220705210053 62 288 0.0 1.0 0.00 0.00 0.00 57 1016.6
20220705204553 62 288 0.0 4.0 0.00 0.00 0.00 56 1016.5
20220705203053 63 292 0.0 2.0 0.00 0.00 0.00 57 1016.5
20220705201552 63 317 0.0 2.0 0.00 0.00 0.00 59 1016.6
20220705200106 64 319 1.0 3.0 0.00 0.00 0.00 59 1016.4
20220705194554 65 279 5.0 12.0 0.00 0.00 0.00 53 1016.3
20220705193050 66 240 2.0 9.0 0.00 0.00 0.00 55 1016.2
20220705191550 65 253 3.0 11.0 0.00 0.00 0.00 57 1016.3
20220705190048 66 152 2.0 11.0 0.00 0.00 0.00 59 1016.2
20220705184548 66 206 3.0 12.0 0.00 0.00 0.00 57 1016.1
20220705183053 65 225 6.0 15.0 0.00 0.00 0.00 57 1016.1
20220705181547 65 220 6.0 16.0 0.00 0.00 0.00 57 1016.2
20220705180045 66 198 4.0 10.0 0.00 0.00 0.00 56 1016.3
20220705174545 66 200 5.0 14.0 0.00 0.00 0.00 57 1016.2
20220705173046 66 227 2.0 9.0 0.00 0.00 0.00 55 1016.2
20220705171546 66 233 4.0 12.0 0.00 0.00 0.00 56 1016.3
20220705170144 67 222 5.0 13.0 0.00 0.00 0.00 55 1016.3
20220705164546 67 196 5.0 20.0 0.00 0.00 0.00 53 1016.5
20220705163042 66 223 4.0 11.0 0.00 0.00 0.00 54 1016.5
20220705161542 67 217 5.0 16.0 0.00 0.00 0.00 55 1016.5
20220705160041 67 186 4.0 12.0 0.00 0.00 0.00 55 1016.6
20220705154548 67 243 4.0 12.0 0.00 0.00 0.00 55 1016.6
20220705153039 66 279 5.0 14.0 0.00 0.00 0.00 54 1016.6
20220705151540 67 207 4.0 14.0 0.00 0.00 0.00 53 1016.6
20220705150037 68 217 3.0 10.0 0.00 0.00 0.00 50 1016.6
20220705144536 66 208 5.0 17.0 0.00 0.00 0.00 53 1016.7
20220705143035 67 134 6.0 17.0 0.00 0.00 0.00 50 1016.8
20220705141536 67 185 6.0 16.0 0.00 0.00 0.00 51 1016.9
20220705140035 67 207 7.0 17.0 0.00 0.00 0.00 51 1016.8
20220705134534 67 188 5.0 18.0 0.00 0.00 0.00 52 1016.8
20220705133034 67 245 6.0 15.0 0.00 0.00 0.00 49 1016.8
20220705131532 67 198 5.0 20.0 0.00 0.00 0.00 49 1017.0
20220705130031 67 250 3.0 11.0 0.00 0.00 0.00 51 1016.9
20220705124530 67 210 5.0 15.0 0.00 0.00 0.00 52 1016.9
20220705123030 66 220 5.0 17.0 0.00 0.00 0.00 53 1016.9
20220705121529 66 205 5.0 16.0 0.00 0.00 0.00 51 1016.9
20220705120036 67 224 5.0 14.0 0.00 0.00 0.00 49 1017.0
20220705114528 67 192 6.0 18.0 0.00 0.00 0.00 48 1017.0
20220705113027 67 181 3.0 12.0 0.00 0.00 0.00 48 1017.1
20220705111535 67 180 3.0 13.0 0.00 0.00 0.00 49 1017.2
20220705110028 66 244 4.0 10.0 0.00 0.00 0.00 52 1017.3
20220705104534 65 277 4.0 11.0 0.00 0.00 0.00 51 1017.3
20220705103023 66 211 4.0 11.0 0.00 0.00 0.00 50 1017.3
20220705101520 66 242 3.0 10.0 0.00 0.00 0.00 52 1017.3
20220705100017 66 234 5.0 10.0 0.00 0.00 0.00 50 1017.3
20220705094521 65 252 3.0 10.0 0.00 0.00 0.00 53 1017.2
20220705093019 65 217 3.0 11.0 0.00 0.00 0.00 54 1017.1
20220705091514 65 200 4.0 11.0 0.00 0.00 0.00 53 1017.0
20220705090018 65 247 2.0 8.0 0.00 0.01 0.00 53 1017.2
20220705084511 65 220 4.0 10.0 0.00 0.01 0.00 55 1017.1
20220705083010 64 249 2.0 9.0 0.00 0.01 0.00 55 1017.0
20220705081509 64 238 1.0 6.0 0.00 0.01 0.00 55 1017.0
20220705080019 65 236 2.0 8.0 0.00 0.01 0.00 55 1016.9
20220705074509 64 225 2.0 7.0 0.00 0.01 0.00 55 1016.8
20220705073009 63 241 2.0 7.0 0.00 0.01 0.00 57 1016.7
20220705071505 63 153 1.0 8.0 0.00 0.01 0.00 58 1016.7
20220705070005 63 229 3.0 10.0 0.00 0.01 0.00 57 1016.6
20220705064504 63 259 3.0 9.0 0.00 0.01 0.00 58 1016.7
20220705063001 63 216 3.0 9.0 0.00 0.01 0.00 56 1016.6
20220705061600 62 245 3.0 13.0 0.00 0.01 0.00 58 1016.4
20220705060101 62 238 2.0 11.0 0.00 0.01 0.00 58 1016.4
20220705054557 62 234 2.0 11.0 0.00 0.01 0.00 58 1016.2
20220705053058 62 238 3.0 12.0 0.00 0.01 0.00 58 1016.2
20220705051555 62 241 3.0 9.0 0.00 0.01 0.00 60 1016.4
20220705050105 62 275 4.0 10.0 0.00 0.01 0.00 61 1016.2
20220705044553 61 239 3.0 6.0 0.00 0.01 0.00 61 1016.1
20220705043049 61 214 3.0 14.0 0.00 0.01 0.00 62 1016.1
20220705041548 61 221 3.0 12.0 0.00 0.01 0.00 61 1016.0
20220705040049 61 212 4.0 13.0 0.00 0.01 0.00 62 1015.8
20220705034545 61 252 4.0 11.0 0.00 0.01 0.00 61 1015.7
20220705033039 62 284 4.0 9.0 0.00 0.01 0.00 62 1015.5
20220705031536 62 203 3.0 12.0 0.00 0.01 0.00 60 1015.5
20220705030032 62 208 4.0 13.0 0.00 0.01 0.00 60 1015.6
20220705024528 62 252 4.0 10.0 0.00 0.01 0.00 61 1015.4
20220705023026 62 220 3.0 7.0 0.00 0.01 0.00 60 1015.5
20220705021524 62 241 4.0 12.0 0.00 0.01 0.00 58 1015.3
20220705020030 62 285 5.0 10.0 0.00 0.01 0.00 57 1015.2
20220705014520 63 229 3.0 9.0 0.00 0.01 0.00 56 1015.3
20220705013025 63 253 4.0 10.0 0.00 0.01 0.00 58 1015.2
20220705004529 63 267 4.0 11.0 0.00 0.01 0.00 57 1015.2
20220705003028 64 247 4.0 13.0 0.00 0.01 0.00 59 1015.1